Pickwick Observed Data For Previous 48 Hours

Caption
Day and Hour Reservoir Elevation (behind dam)* Tailwater Elevation (below dam)* Average Hourly Discharge*
11/16/2017 1 AM CST 410.99 362.78 61,322
11/16/2017 2 AM CST 411.00 362.71 61,148
11/16/2017 3 AM CST 410.95 362.78 61,265
11/16/2017 4 AM CST 410.90 362.73 61,328
11/16/2017 5 AM CST 410.85 362.83 61,383
11/16/2017 6 AM CST 410.84 362.79 61,442
11/16/2017 7 AM CST 410.80 362.74 61,315
11/16/2017 8 AM CST 410.81 362.73 61,212
11/16/2017 9 AM CST 410.83 362.72 61,270
11/16/2017 10 AM CST 410.81 362.71 61,126
11/16/2017 11 AM CST 410.82 362.72 61,107
11/16/2017 12 PM CST 410.74 362.78 61,270
11/16/2017 1 PM CST 410.80 362.74 61,180
11/16/2017 2 PM CST 410.78 362.72 61,032
11/16/2017 3 PM CST 410.75 362.71 60,956
11/16/2017 4 PM CST 410.74 362.79 61,484
11/16/2017 5 PM CST 410.73 362.76 61,859
11/16/2017 6 PM CST 410.69 362.74 61,559
11/16/2017 7 PM CST 410.69 362.85 61,638
11/16/2017 8 PM CST 410.74 362.80 61,724
11/16/2017 9 PM CST 410.77 362.76 61,652
11/16/2017 10 PM CST 410.78 362.75 61,562
11/16/2017 11 PM CST 410.74 362.78 61,383
11/17/2017 12 AM CST 410.74 362.75 61,436
11/17/2017 1 AM CST 410.78 362.72 61,318
11/17/2017 2 AM CST 410.75 362.74 61,413
11/17/2017 3 AM CST 410.74 362.72 61,331
11/17/2017 4 AM CST 410.68 362.74 61,449
11/17/2017 5 AM CST 410.66 362.74 61,442
11/17/2017 6 AM CST 410.63 362.75 61,522
11/17/2017 7 AM CST 410.61 362.72 61,377
11/17/2017 8 AM CST 410.61 362.72 61,353
11/17/2017 9 AM CST 410.65 362.80 61,272
11/17/2017 10 AM CST 410.68 362.78 61,602
11/17/2017 11 AM CST 410.64 362.81 61,376
11/17/2017 12 PM CST 410.64 362.77 61,733
11/17/2017 1 PM CST 410.63 362.36 54,645
11/17/2017 2 PM CST 410.62 362.15 51,949
11/17/2017 3 PM CST 410.60 361.89 51,996
11/17/2017 4 PM CST 410.55 361.85 51,834
11/17/2017 5 PM CST 410.58 361.73 51,586
11/17/2017 6 PM CST 410.56 361.63 51,489
11/17/2017 7 PM CST 410.58 361.56 51,600
11/17/2017 8 PM CST 410.63 361.52 51,520
11/17/2017 9 PM CST 410.64 361.56 51,446
11/17/2017 10 PM CST 410.68 361.49 49,193
11/17/2017 11 PM CST 410.70 360.70 31,821
11/18/2017 12 AM CST 410.73 359.95 30,962
11/18/2017 1 AM CST 410.64 360.30 47,574
11/18/2017 2 AM CST 410.67 360.81 50,477
11/18/2017 3 AM CST 410.70 361.05 50,260
11/18/2017 4 AM CST 410.70 360.99 50,443
11/18/2017 5 AM CST 410.72 360.98 50,429
11/18/2017 6 AM CST 410.77 361.04 50,367
11/18/2017 7 AM CST 410.74 361.08 50,509
11/18/2017 8 AM CST 410.72 361.01 50,471
11/18/2017 9 AM CST 410.73 361.09 50,390

Elevations are in feet above sea level. Discharges are in cubic feet per second and are reported at the end of the hour.